Startpagina
METAR-TAF:

METAR-TAF

Vliegvelden :

Luchthaven Port Moresby

Port Moresby, Papoea-Nieuw-Guinea

breedte: 09-26S, lengte: 147-13E, hoogte: 38 m

Actueel weer

Dit bericht is 55 minuten geleden gemaakt, om 11:00 UTC
Wind 10 kt uit het zuidzuidoosten
Temperatuur 27°C
Vochtigheid 89%
Druk
Zicht: 1012 m
Gebroken wolken op 2500 ft
Gebroken wolken op 4000 ft

METAR: AYPY 171100Z 15010KT 9999 BKN025 BKN040 27/25 1012

Tijdstip: 21:55 (11:55 UTC)

Verwachting

Dit bericht is 1 uur en het 51 minuten geleden gemaakt, om 10:04 UTC
Verwachting geldig van 17 om 12 UTC tot 18 om 12 UTC
Wind 8 kt uit het zuidzuidoosten
Zicht 10 km of meer
Weinig wolken op 1600 ft
Gebroken wolken op 3500 ft
Van 17 om 1800 UTC
Wind kt uit het noorden
Zicht: 1009 m
Gebroken wolken op 3500 ft

TAF: AYPY 171004Z 1712/1812 16008KT 9999 FEW016 BKN035 FM171800 00000KT 9999 BKN035 T/26 26 25 25 Q/1011 1010 1008 1009

Waarnemingen en weersverwachtingen van meer dan 4000 vliegvelden (METAR en TAF).

De beschikbare stations zijn de gele en rode punten op de kaart.

Ga met uw muis naar het station om de naam te zien.

Klik dan om waarnemingen en weersverwachtingen te zien.

kaart wijzigen: klik op de groene knoppen met een zwart kruis om in te zoomen, op de groene knop met een streepje om uit te zoomen of op de groene pijlen voor aangrenzende kaarten.


METAR-TAF: